Time;durP1;ratioP1;P1;durP2;ratioP2;P2;SDS_P1;SDS_P2;PMS_P1;PMS_P2;Temp;Humidity;BMP_temperature;BMP_pressure;BME280_temperature;BME280_humidity;BME280_pressure;Samples;Min_cycle;Max_cycle;Signal;HPM_P1;HPM_P2
2021/03/03 00:00:05;;;;;;;32.63;12.20;;;10.20;99.90;;;;;;5008226;28;20041;-93
2021/03/03 00:02:42;;;;;;;27.52;10.75;;;10.20;99.90;;;;;;5011300;28;20071;-92
2021/03/03 00:05:17;;;;;;;30.63;10.90;;;10.20;99.90;;;;;;5011114;28;20049;-92
2021/03/03 00:07:53;;;;;;;28.15;10.57;;;10.20;99.90;;;;;;5024787;28;20466;-92
2021/03/03 00:10:28;;;;;;;24.77;9.90;;;10.20;99.90;;;;;;5011709;28;20055;-92
2021/03/03 00:13:03;;;;;;;26.73;10.68;;;10.20;99.90;;;;;;5014692;28;20046;-93
2021/03/03 00:15:43;;;;;;;25.48;9.95;;;10.30;99.90;;;;;;5011868;28;20052;-92
2021/03/03 00:18:18;;;;;;;24.65;10.55;;;10.30;99.90;;;;;;5009461;28;20045;-92
2021/03/03 00:20:53;;;;;;;31.20;10.50;;;10.30;99.90;;;;;;5021486;28;20049;-92
2021/03/03 00:23:31;;;;;;;30.15;10.65;;;10.30;99.90;;;;;;5001943;28;20053;-92
2021/03/03 00:26:06;;;;;;;27.42;10.32;;;10.30;99.90;;;;;;5020512;28;20053;-92
2021/03/03 00:28:42;;;;;;;28.05;10.20;;;10.20;99.90;;;;;;4983173;28;20052;-92
2021/03/03 00:31:16;;;;;;;31.67;10.75;;;10.30;99.90;;;;;;5012294;28;20107;-92
2021/03/03 00:33:54;;;;;;;29.50;10.68;;;10.20;99.90;;;;;;5014165;28;20073;-93
2021/03/03 00:36:29;;;;;;;21.65;9.82;;;10.20;99.90;;;;;;5014496;28;20243;-92
2021/03/03 00:39:06;;;;;;;26.95;10.75;;;10.20;99.90;;;;;;5017514;28;20046;-93
2021/03/03 00:41:44;;;;;;;33.15;10.32;;;10.10;99.90;;;;;;5004679;28;20049;-93
2021/03/03 00:44:22;;;;;;;29.77;10.48;;;10.10;99.90;;;;;;4999482;28;20076;-93
2021/03/03 00:46:58;;;;;;;29.38;9.60;;;10.10;99.90;;;;;;5036276;28;20060;-92
2021/03/03 00:49:33;;;;;;;24.20;10.10;;;10.00;99.90;;;;;;5015421;28;20078;-93
2021/03/03 00:52:09;;;;;;;25.63;9.82;;;10.00;99.90;;;;;;5011389;28;20042;-92
2021/03/03 00:54:45;;;;;;;29.45;10.32;;;10.00;99.90;;;;;;5015665;28;20046;-93
2021/03/03 00:57:23;;;;;;;30.88;10.45;;;10.00;99.90;;;;;;5011940;28;20056;-93
2021/03/03 00:59:59;;;;;;;30.15;10.13;;;10.00;99.90;;;;;;5019004;28;20041;-93
2021/03/03 01:02:32;;;;;;;27.65;9.57;;;10.00;99.90;;;;;;5013753;28;20048;-92
2021/03/03 01:05:06;;;;;;;26.45;10.35;;;10.00;99.90;;;;;;5008721;28;20076;-92
2021/03/03 01:07:43;;;;;;;30.52;11.05;;;10.00;99.90;;;;;;5018771;28;20069;-93
2021/03/03 01:10:18;;;;;;;33.75;10.32;;;10.00;99.90;;;;;;5010494;28;20053;-93
2021/03/03 01:12:56;;;;;;;40.03;11.43;;;10.00;99.90;;;;;;5018064;28;20049;-93
2021/03/03 01:15:31;;;;;;;31.00;11.23;;;10.00;99.90;;;;;;5010005;28;20124;-92
2021/03/03 01:18:08;;;;;;;25.10;10.60;;;10.00;99.90;;;;;;5020082;28;20565;-92
2021/03/03 01:20:44;;;;;;;27.02;10.80;;;10.00;99.90;;;;;;5002301;28;20053;-93
2021/03/03 01:23:20;;;;;;;28.25;10.88;;;10.10;99.90;;;;;;4997132;28;20149;-92
2021/03/03 01:25:54;;;;;;;28.70;10.52;;;10.10;99.90;;;;;;5016206;28;20053;-92
2021/03/03 01:28:34;;;;;;;23.83;9.80;;;10.10;99.90;;;;;;4992827;28;20050;-92
2021/03/03 01:31:09;;;;;;;24.83;10.60;;;10.20;99.90;;;;;;5002329;28;20510;-92
2021/03/03 01:33:45;;;;;;;30.17;10.48;;;10.20;99.90;;;;;;5009841;28;20057;-93
2021/03/03 01:36:22;;;;;;;25.38;10.27;;;10.20;99.90;;;;;;5012479;28;20060;-92
2021/03/03 01:38:57;;;;;;;27.92;11.30;;;10.20;99.90;;;;;;5021592;28;20116;-92
2021/03/03 01:41:33;;;;;;;26.67;10.95;;;10.20;99.90;;;;;;5007293;28;20108;-92
2021/03/03 01:44:07;;;;;;;31.88;11.35;;;10.30;99.90;;;;;;5005398;28;20163;-92
2021/03/03 01:46:43;;;;;;;28.88;10.75;;;10.30;99.90;;;;;;4999957;28;20073;-93
2021/03/03 01:49:21;;;;;;;30.90;10.93;;;10.30;99.90;;;;;;5004806;28;20053;-92
2021/03/03 01:51:58;;;;;;;24.38;9.95;;;10.30;99.90;;;;;;5017680;28;20368;-93
2021/03/03 01:54:33;;;;;;;25.45;10.10;;;10.40;99.90;;;;;;5011467;28;20045;-93
2021/03/03 01:57:08;;;;;;;26.63;10.55;;;10.40;99.90;;;;;;5011395;28;20038;-92
2021/03/03 01:59:43;;;;;;;23.95;10.25;;;10.40;99.90;;;;;;5017884;28;20128;-93
2021/03/03 02:02:23;;;;;;;25.52;10.45;;;10.40;99.90;;;;;;5000869;28;20120;-92
2021/03/03 02:04:58;;;;;;;33.92;11.60;;;10.40;99.90;;;;;;5011223;28;20056;-92
2021/03/03 02:07:44;;;;;;;29.90;10.98;;;10.50;99.90;;;;;;5008790;28;20419;-92
2021/03/03 02:10:25;;;;;;;32.40;11.10;;;10.50;99.90;;;;;;5006357;28;20045;-92
2021/03/03 02:13:15;;;;;;;36.67;11.73;;;10.40;99.90;;;;;;5022614;28;20057;-92
2021/03/03 02:15:52;;;;;;;39.70;12.63;;;10.50;99.90;;;;;;4988062;28;20085;-93
2021/03/03 02:18:26;;;;;;;27.65;11.82;;;10.40;99.90;;;;;;5026801;28;20049;-93
2021/03/03 02:21:27;;;;;;;30.50;12.40;;;10.50;99.90;;;;;;5016541;28;20136;-93
2021/03/03 02:23:59;;;;;;;34.55;11.40;;;10.50;99.90;;;;;;5002685;28;20081;-93
2021/03/03 02:26:36;;;;;;;31.00;11.23;;;10.50;99.90;;;;;;4982029;28;20045;-92
2021/03/03 02:29:12;;;;;;;35.15;11.48;;;10.50;99.90;;;;;;4997352;28;20104;-92
2021/03/03 02:31:50;;;;;;;28.60;11.13;;;10.60;99.90;;;;;;5019624;28;20048;-92
2021/03/03 02:34:26;;;;;;;31.77;11.45;;;10.50;99.90;;;;;;5013277;28;20046;-93
2021/03/03 02:37:01;;;;;;;;;;;10.60;99.90;;;;;;5029878;28;20049;-93
2021/03/03 02:39:35;;;;;;;31.70;10.90;;;10.50;99.90;;;;;;5008357;28;20247;-93
2021/03/03 02:42:10;;;;;;;32.65;10.45;;;10.60;99.90;;;;;;5002820;28;20103;-91
2021/03/03 02:44:44;;;;;;;32.63;10.77;;;10.60;99.90;;;;;;5015516;28;20047;-92
2021/03/03 02:47:20;;;;;;;31.27;11.18;;;10.60;99.90;;;;;;5014143;28;20052;-92
2021/03/03 02:49:55;;;;;;;40.22;11.10;;;10.60;99.90;;;;;;5033693;28;20041;-92
2021/03/03 02:52:31;;;;;;;39.03;11.88;;;10.60;99.90;;;;;;5004981;28;20117;-92
2021/03/03 02:55:03;;;;;;;28.92;9.90;;;10.60;99.90;;;;;;5017275;28;20045;-93
2021/03/03 02:57:39;;;;;;;34.92;11.10;;;10.60;99.90;;;;;;5007840;28;20506;-92
2021/03/03 03:00:29;;;;;;;47.42;11.38;;;10.60;99.90;;;;;;5014602;28;20046;-93
2021/03/03 03:03:26;;;;;;;37.05;11.48;;;10.60;99.90;;;;;;5007490;28;20079;-92
2021/03/03 03:06:10;;;;;;;38.15;11.18;;;10.60;99.90;;;;;;4992219;28;20049;-92
2021/03/03 03:08:47;;;;;;;35.53;10.82;;;10.60;99.90;;;;;;5014380;28;20049;-92
2021/03/03 03:11:27;;;;;;;45.13;12.43;;;10.60;99.90;;;;;;5010477;28;20136;-92
2021/03/03 03:14:11;;;;;;;42.50;12.25;;;10.60;99.90;;;;;;5019301;28;20376;-92
2021/03/03 03:16:44;;;;;;;48.03;11.15;;;10.60;99.90;;;;;;5021232;28;20045;-92
2021/03/03 03:19:23;;;;;;;39.67;12.20;;;10.60;99.90;;;;;;5023177;28;20111;-92
2021/03/03 03:21:57;;;;;;;28.60;9.80;;;10.60;99.90;;;;;;5017611;28;20045;-92
2021/03/03 03:24:31;;;;;;;40.88;11.43;;;10.60;99.90;;;;;;5009365;28;20072;-92
2021/03/03 03:27:05;;;;;;;41.22;11.95;;;10.60;99.90;;;;;;5014846;28;20045;-92
2021/03/03 03:29:42;;;;;;;39.47;12.75;;;10.60;99.90;;;;;;5009875;28;20038;-92
2021/03/03 03:32:32;;;;;;;34.28;11.70;;;10.60;99.90;;;;;;4997245;28;20104;-92
2021/03/03 03:35:09;;;;;;;33.80;11.40;;;10.70;99.90;;;;;;5014315;28;20054;-92
2021/03/03 03:37:44;;;;;;;36.67;12.43;;;10.70;99.90;;;;;;5007022;28;20038;-92
2021/03/03 03:40:18;;;;;;;36.50;11.45;;;10.70;99.90;;;;;;5019095;28;20479;-92
2021/03/03 03:42:54;;;;;;;29.38;11.35;;;10.70;99.90;;;;;;5019532;28;20049;-92
2021/03/03 03:45:30;;;;;;;29.23;12.25;;;10.70;99.90;;;;;;5003461;28;20233;-92
2021/03/03 03:48:08;;;;;;;37.30;12.30;;;10.70;99.90;;;;;;5017678;28;20556;-92
2021/03/03 03:50:46;;;;;;;32.00;11.60;;;10.70;99.90;;;;;;5007747;28;20045;-92
2021/03/03 03:53:23;;;;;;;35.00;11.88;;;10.80;99.90;;;;;;5014295;28;20125;-92
2021/03/03 03:55:59;;;;;;;34.63;11.90;;;10.80;99.90;;;;;;5014384;28;20128;-92
2021/03/03 03:58:35;;;;;;;39.97;12.30;;;10.70;99.90;;;;;;5011283;28;20045;-92
2021/03/03 04:01:11;;;;;;;44.70;13.40;;;10.80;99.90;;;;;;5010936;28;20553;-92
2021/03/03 04:03:48;;;;;;;46.05;13.20;;;10.80;99.90;;;;;;5015916;28;20092;-92
2021/03/03 04:06:25;;;;;;;55.10;14.35;;;10.80;99.90;;;;;;5012600;28;20077;-93
2021/03/03 04:09:00;;;;;;;50.22;13.77;;;10.80;99.90;;;;;;5019120;28;20049;-93
2021/03/03 04:11:38;;;;;;;50.00;14.80;;;10.80;99.90;;;;;;5012738;28;20060;-92
2021/03/03 04:14:14;;;;;;;49.58;14.70;;;10.90;99.90;;;;;;5025052;28;20103;-93
2021/03/03 04:16:51;;;;;;;45.80;13.93;;;10.90;99.90;;;;;;5016666;28;20433;-93
2021/03/03 04:19:27;;;;;;;43.75;13.68;;;10.90;99.90;;;;;;5028430;28;20041;-93
2021/03/03 04:22:03;;;;;;;46.67;14.93;;;10.90;99.90;;;;;;5021350;28;20046;-93
2021/03/03 04:24:40;;;;;;;57.40;15.52;;;10.90;99.90;;;;;;4994550;28;20041;-93
2021/03/03 04:27:17;;;;;;;48.20;13.60;;;10.90;99.90;;;;;;5019180;28;20502;-93
2021/03/03 04:29:52;;;;;;;53.17;15.38;;;10.90;99.90;;;;;;5017367;28;20041;-93
2021/03/03 04:32:28;;;;;;;44.88;13.20;;;10.90;99.90;;;;;;5010513;28;20214;-93
2021/03/03 04:35:07;;;;;;;50.10;14.07;;;10.90;99.90;;;;;;5019457;28;20554;-93
2021/03/03 04:37:41;;;;;;;59.05;14.68;;;11.00;99.90;;;;;;5007189;28;20095;-93
2021/03/03 04:40:19;;;;;;;49.75;14.23;;;11.00;99.90;;;;;;5026119;28;20402;-93
2021/03/03 04:42:54;;;;;;;46.08;15.32;;;11.00;99.90;;;;;;5017587;28;20083;-93
2021/03/03 04:45:32;;;;;;;53.63;15.37;;;11.00;99.90;;;;;;5011864;28;20053;-93
2021/03/03 04:48:09;;;;;;;60.58;14.60;;;11.00;99.90;;;;;;5017991;28;20045;-93
2021/03/03 04:50:47;;;;;;;58.28;15.43;;;11.00;99.90;;;;;;5006675;28;20111;-93
2021/03/03 04:53:24;;;;;;;72.13;15.93;;;11.00;99.90;;;;;;5012930;28;20478;-93
2021/03/03 04:55:59;;;;;;;55.25;14.90;;;11.00;99.90;;;;;;5022790;28;20041;-93
2021/03/03 04:58:36;;;;;;;55.25;15.25;;;11.00;99.90;;;;;;5008494;28;20485;-93
2021/03/03 05:01:12;;;;;;;61.78;15.35;;;11.00;99.90;;;;;;5025453;28;21876;-93
2021/03/03 05:03:50;;;;;;;61.75;15.45;;;11.00;99.90;;;;;;5035409;28;20041;-93
2021/03/03 05:06:24;;;;;;;53.78;14.85;;;11.00;99.90;;;;;;5018087;28;20056;-92
2021/03/03 05:09:00;;;;;;;53.78;15.98;;;11.00;99.90;;;;;;5020529;28;20048;-93
2021/03/03 05:11:36;;;;;;;60.78;15.07;;;11.00;99.90;;;;;;5011461;28;20057;-93
2021/03/03 05:14:12;;;;;;;54.45;14.75;;;11.00;99.90;;;;;;5017167;28;20073;-92
2021/03/03 05:16:50;;;;;;;62.67;15.43;;;11.00;99.90;;;;;;5021647;28;20120;-92
2021/03/03 05:19:26;;;;;;;60.85;15.35;;;11.00;99.90;;;;;;5014723;28;20096;-92
2021/03/03 05:22:00;;;;;;;54.60;15.65;;;11.00;99.90;;;;;;5021693;28;20041;-92
2021/03/03 05:24:34;;;;;;;56.35;15.35;;;11.00;99.90;;;;;;5007791;28;20078;-92
2021/03/03 05:27:12;;;;;;;63.80;15.48;;;11.00;99.90;;;;;;5013093;28;20052;-92
2021/03/03 05:29:46;;;;;;;64.93;16.08;;;11.00;99.90;;;;;;5026534;28;20049;-93
2021/03/03 05:32:24;;;;;;;61.42;15.48;;;11.00;99.90;;;;;;5030162;28;20106;-93
2021/03/03 05:35:01;;;;;;;54.85;14.15;;;11.00;99.90;;;;;;5020664;28;20050;-93
2021/03/03 05:37:36;;;;;;;52.70;15.45;;;11.00;99.90;;;;;;5008135;28;20154;-93
2021/03/03 05:40:12;;;;;;;55.83;15.25;;;11.00;99.90;;;;;;5027321;28;20175;-93
2021/03/03 05:42:48;;;;;;;62.30;16.10;;;11.00;99.90;;;;;;5020785;28;20596;-92
2021/03/03 05:45:24;;;;;;;63.47;15.93;;;11.00;99.90;;;;;;5015385;28;20056;-93
2021/03/03 05:48:00;;;;;;;69.38;15.82;;;11.00;99.90;;;;;;5022385;28;20045;-93
2021/03/03 05:50:36;;;;;;;57.95;16.25;;;11.00;99.90;;;;;;4992377;28;20045;-93
2021/03/03 05:53:14;;;;;;;67.33;17.80;;;11.00;99.90;;;;;;5026172;28;20041;-93
2021/03/03 05:55:49;;;;;;;72.28;17.52;;;11.00;99.90;;;;;;5017670;28;20057;-93
2021/03/03 05:58:30;;;;;;;66.88;17.48;;;11.00;99.90;;;;;;5009303;28;20049;-93
2021/03/03 06:01:05;;;;;;;65.93;16.60;;;11.00;99.90;;;;;;5024515;28;20049;-93
2021/03/03 06:03:41;;;;;;;56.05;15.10;;;11.00;99.90;;;;;;5013937;28;20052;-92
2021/03/03 06:06:17;;;;;;;55.40;16.70;;;11.00;99.90;;;;;;5016939;28;20037;-92
2021/03/03 06:08:53;;;;;;;65.53;16.33;;;11.00;99.90;;;;;;5021148;28;20048;-93
2021/03/03 06:11:26;;;;;;;69.35;15.73;;;11.00;99.90;;;;;;5013594;28;20361;-87
2021/03/03 06:14:01;;;;;;;68.28;17.58;;;11.00;99.90;;;;;;5026436;28;20475;-92
2021/03/03 06:16:32;;;;;;;66.53;16.38;;;11.10;99.90;;;;;;5033498;28;20137;-91
2021/03/03 06:19:02;;;;;;;62.80;16.65;;;11.10;99.90;;;;;;5024413;28;20049;-91
2021/03/03 06:21:33;;;;;;;61.35;16.15;;;11.10;99.90;;;;;;5014372;28;20099;-90
2021/03/03 06:24:07;;;;;;;58.72;15.43;;;11.10;99.90;;;;;;5026467;28;20127;-91
2021/03/03 06:26:59;;;;;;;60.70;15.73;;;11.10;99.90;;;;;;5024226;28;20055;-91
2021/03/03 06:29:28;;;;;;;46.35;13.48;;;11.00;99.90;;;;;;5021523;28;22179;-91
2021/03/03 06:32:04;;;;;;;57.47;15.10;;;11.00;99.90;;;;;;5044987;28;20048;-91
2021/03/03 06:34:55;;;;;;;48.05;13.77;;;11.00;99.90;;;;;;5032494;28;20382;-91
2021/03/03 06:37:26;;;;;;;55.72;13.88;;;11.00;99.90;;;;;;5037160;28;21393;-91
2021/03/03 06:40:08;;;;;;;52.35;13.90;;;11.00;99.90;;;;;;5028650;28;20040;-90
2021/03/03 06:42:39;;;;;;;58.47;14.55;;;11.00;99.90;;;;;;5039425;28;20132;-91
2021/03/03 06:45:08;;;;;;;53.38;14.45;;;11.00;99.90;;;;;;5022883;28;20068;-89
2021/03/03 06:47:49;;;;;;;51.55;15.60;;;11.00;99.90;;;;;;5032528;28;20139;-91
2021/03/03 06:50:20;;;;;;;57.25;14.93;;;10.90;99.90;;;;;;5038694;28;20037;-91
2021/03/03 06:52:54;;;;;;;65.85;15.48;;;10.90;99.90;;;;;;5033071;28;20482;-91
2021/03/03 06:55:25;;;;;;;51.63;15.35;;;10.90;99.90;;;;;;5035938;28;20052;-90
2021/03/03 06:57:56;;;;;;;59.85;15.65;;;10.90;99.90;;;;;;5025519;28;20044;-91
2021/03/03 07:00:44;;;;;;;68.97;15.23;;;11.00;99.90;;;;;;5025759;28;20422;-91
2021/03/03 07:03:35;;;;;;;55.42;15.63;;;10.90;99.90;;;;;;5027425;28;20098;-90
2021/03/03 07:06:04;;;;;;;49.63;14.23;;;10.90;99.90;;;;;;5030998;28;20056;-90
2021/03/03 07:08:35;;;;;;;63.30;17.40;;;10.90;99.90;;;;;;5020115;28;20123;-90
2021/03/03 07:11:19;;;;;;;76.18;17.92;;;10.90;99.90;;;;;;5030949;28;20072;-89
2021/03/03 07:13:50;;;;;;;67.00;17.17;;;10.90;99.90;;;;;;5019210;28;20072;-93
2021/03/03 07:16:25;;;;;;;77.35;17.40;;;10.90;99.90;;;;;;5011737;28;20049;-92
2021/03/03 07:18:58;;;;;;;71.13;18.15;;;10.90;99.90;;;;;;5026301;28;20098;-93
2021/03/03 07:21:41;;;;;;;75.30;18.13;;;10.90;99.90;;;;;;4997230;28;20421;-93
2021/03/03 07:24:17;;;;;;;69.20;17.30;;;11.00;99.90;;;;;;5021379;28;20375;-93
2021/03/03 07:26:52;;;;;;;72.25;17.73;;;11.00;99.90;;;;;;5026259;28;20072;-93
2021/03/03 07:29:27;;;;;;;66.40;17.70;;;11.00;99.90;;;;;;5013388;28;20486;-93
2021/03/03 07:32:02;;;;;;;82.05;17.70;;;11.00;99.90;;;;;;5023544;28;20061;-94
2021/03/03 07:34:41;;;;;;;59.97;17.65;;;11.00;99.90;;;;;;5013943;28;20068;-93
2021/03/03 07:37:19;;;;;;;64.63;18.60;;;11.10;99.90;;;;;;5017331;28;20088;-93
2021/03/03 07:40:05;;;;;;;57.38;17.25;;;11.10;99.90;;;;;;5020115;28;20048;-92
2021/03/03 07:42:40;;;;;;;68.88;18.00;;;11.10;99.90;;;;;;4995847;28;20056;-93
2021/03/03 07:45:17;;;;;;;78.05;17.90;;;11.10;99.90;;;;;;5017267;28;20487;-92
2021/03/03 07:47:55;;;;;;;69.37;18.10;;;11.10;99.90;;;;;;5023994;28;20068;-93
2021/03/03 07:50:32;;;;;;;69.25;17.42;;;11.20;99.90;;;;;;5021259;28;20049;-93
2021/03/03 07:53:06;;;;;;;75.10;19.10;;;11.20;99.90;;;;;;5024828;28;20041;-93
2021/03/03 07:55:44;;;;;;;64.82;17.98;;;11.20;99.90;;;;;;4994935;28;20041;-92
2021/03/03 07:58:19;;;;;;;61.33;17.95;;;11.20;99.90;;;;;;5016644;28;20049;-90
2021/03/03 08:00:56;;;;;;;69.22;17.98;;;11.20;99.90;;;;;;5031071;28;20501;-93
2021/03/03 08:03:51;;;;;;;60.70;17.58;;;11.30;99.90;;;;;;5013312;28;20049;-92
2021/03/03 08:06:36;;;;;;;69.80;17.27;;;11.30;99.90;;;;;;5024773;28;20083;-91
2021/03/03 08:09:05;;;;;;;64.20;17.83;;;11.30;99.90;;;;;;5019749;28;20053;-91
2021/03/03 08:11:38;;;;;;;68.70;16.73;;;11.30;99.90;;;;;;5017450;28;20044;-93
2021/03/03 08:14:31;;;;;;;70.05;18.92;;;11.30;99.90;;;;;;5018649;28;20068;-92
2021/03/03 08:17:08;;;;;;;77.07;18.50;;;11.30;99.90;;;;;;5029774;28;20040;-92
2021/03/03 08:19:58;;;;;;;57.97;16.90;;;11.30;99.90;;;;;;5029499;28;20170;-92
2021/03/03 08:22:56;;;;;;;75.55;19.10;;;11.30;99.90;;;;;;5025803;28;20056;-92
2021/03/03 08:25:45;;;;;;;69.70;16.83;;;11.30;99.90;;;;;;5028860;28;20050;-92
2021/03/03 08:28:32;;;;;;;63.63;15.65;;;11.30;99.90;;;;;;5012423;28;20130;-93
2021/03/03 08:31:12;;;;;;;43.78;13.80;;;11.30;99.90;;;;;;5037344;28;20462;-92
2021/03/03 08:33:48;;;;;;;51.05;14.20;;;11.30;99.90;;;;;;5010314;28;20071;-95
2021/03/03 08:36:25;;;;;;;54.33;15.30;;;11.30;99.90;;;;;;5018150;28;20045;-92
2021/03/03 08:38:56;;;;;;;54.47;15.38;;;11.30;99.90;;;;;;5021404;28;20055;-92
2021/03/03 08:41:36;;;;;;;61.38;15.48;;;11.40;99.90;;;;;;5016139;28;20045;-92
2021/03/03 08:44:14;;;;;;;52.25;13.48;;;11.50;99.90;;;;;;5017209;28;20052;-91
2021/03/03 08:46:49;;;;;;;61.00;14.43;;;11.50;99.90;;;;;;5027584;28;20040;-91
2021/03/03 08:49:23;;;;;;;40.53;12.95;;;11.50;99.90;;;;;;5014364;28;20550;-92
2021/03/03 08:52:10;;;;;;;41.47;13.20;;;11.60;99.90;;;;;;5032299;28;20048;-94
2021/03/03 08:54:44;;;;;;;;;;;11.60;99.90;;;;;;5012247;28;20048;-92
2021/03/03 08:57:37;;;;;;;47.03;10.70;;;11.60;99.90;;;;;;5017607;28;19978;-91
2021/03/03 09:00:10;;;;;;;32.60;9.23;;;11.60;99.90;;;;;;5027210;28;20049;-91
2021/03/03 09:02:47;;;;;;;34.13;9.70;;;11.60;99.90;;;;;;5034377;28;20151;-92
2021/03/03 09:05:23;;;;;;;25.95;8.93;;;11.60;99.90;;;;;;5013114;28;20127;-92
2021/03/03 09:07:59;;;;;;;29.92;9.07;;;11.60;99.90;;;;;;5016632;28;20037;-91
2021/03/03 09:10:35;;;;;;;41.15;9.13;;;11.60;99.90;;;;;;5037456;28;20323;-92
2021/03/03 09:13:20;;;;;;;39.38;9.70;;;11.60;99.90;;;;;;5015374;28;20091;-92
2021/03/03 09:16:06;;;;;;;43.28;10.63;;;11.60;99.90;;;;;;5032819;28;20041;-91
2021/03/03 09:18:42;;;;;;;37.38;9.43;;;11.60;99.90;;;;;;5019180;28;20041;-92
2021/03/03 09:21:19;;;;;;;38.00;9.35;;;11.60;99.90;;;;;;5026985;28;20102;-92
2021/03/03 09:24:06;;;;;;;35.20;9.57;;;11.70;99.90;;;;;;5039228;28;20047;-92
2021/03/03 09:26:44;;;;;;;37.95;9.77;;;11.70;99.90;;;;;;5014124;28;20051;-92
2021/03/03 09:29:37;;;;;;;31.25;8.68;;;11.70;99.90;;;;;;5025236;28;20048;-92
2021/03/03 09:32:12;;;;;;;34.47;8.30;;;11.70;99.90;;;;;;5011317;28;20044;-91
2021/03/03 09:34:54;;;;;;;29.08;7.60;;;11.80;99.90;;;;;;5017314;28;20041;-93
2021/03/03 09:37:33;;;;;;;26.73;7.20;;;11.80;99.90;;;;;;5029107;28;20129;-92
2021/03/03 09:40:10;;;;;;;29.02;8.23;;;11.90;99.90;;;;;;5035584;28;20045;-91
2021/03/03 09:42:47;;;;;;;27.42;6.60;;;11.90;99.90;;;;;;5021899;28;20529;-92
2021/03/03 09:45:24;;;;;;;21.60;6.20;;;12.00;99.90;;;;;;5006434;28;20037;-92
2021/03/03 09:48:00;;;;;;;16.23;5.50;;;12.00;99.90;;;;;;5003284;28;20091;-92
2021/03/03 09:50:38;;;;;;;19.95;5.43;;;12.10;99.90;;;;;;4982562;28;20123;-92
2021/03/03 09:53:14;;;;;;;12.43;4.82;;;12.10;99.90;;;;;;5008067;28;20041;-92
2021/03/03 09:55:50;;;;;;;12.95;4.47;;;12.10;99.90;;;;;;5023127;28;20320;-92
2021/03/03 09:58:26;;;;;;;13.30;4.05;;;12.20;99.90;;;;;;5012417;28;20111;-92
2021/03/03 10:01:02;;;;;;;18.38;4.50;;;12.20;99.90;;;;;;5012810;28;20060;-92
2021/03/03 10:03:39;;;;;;;12.05;4.20;;;12.20;99.90;;;;;;5002040;28;20114;-91
2021/03/03 10:06:15;;;;;;;15.52;4.68;;;12.20;99.90;;;;;;5008533;28;20667;-92
2021/03/03 10:08:51;;;;;;;17.42;5.03;;;12.20;99.90;;;;;;5018687;28;20041;-91
2021/03/03 10:11:25;;;;;;;12.07;4.65;;;12.20;99.90;;;;;;5007486;28;20056;-91
2021/03/03 10:14:08;;;;;;;13.15;4.50;;;12.20;99.90;;;;;;5014086;28;20394;-92
2021/03/03 10:16:57;;;;;;;15.57;4.53;;;12.20;99.90;;;;;;5005893;28;20044;-90
2021/03/03 10:19:41;;;;;;;14.80;4.75;;;12.20;99.90;;;;;;5014357;28;20044;-91
2021/03/03 10:22:16;;;;;;;14.85;4.93;;;12.20;99.90;;;;;;5012545;28;20075;-91
2021/03/03 10:25:12;;;;;;;16.85;4.03;;;12.30;99.90;;;;;;5020447;28;20033;-92
2021/03/03 10:27:47;;;;;;;11.80;4.38;;;12.30;99.90;;;;;;5024152;28;20079;-92
2021/03/03 10:30:32;;;;;;;16.42;5.20;;;12.40;99.90;;;;;;5014232;28;20046;-92
2021/03/03 10:33:08;;;;;;;18.67;4.47;;;12.50;99.90;;;;;;5020893;28;20044;-92
2021/03/03 10:35:51;;;;;;;11.95;4.20;;;12.60;99.90;;;;;;5013422;28;20419;-92
2021/03/03 10:38:28;;;;;;;13.88;4.93;;;12.70;99.90;;;;;;5038344;28;20056;-92
2021/03/03 10:41:06;;;;;;;16.58;5.15;;;12.80;99.90;;;;;;5020204;28;20057;-92
2021/03/03 10:43:54;;;;;;;13.27;5.00;;;12.90;99.90;;;;;;5015322;28;20033;-91
2021/03/03 10:46:30;;;;;;;19.33;5.95;;;12.90;99.90;;;;;;5006879;28;20052;-92
2021/03/03 10:49:18;;;;;;;15.05;5.30;;;12.90;99.90;;;;;;5025296;28;20474;-92
2021/03/03 10:51:52;;;;;;;15.75;5.55;;;12.80;99.90;;;;;;5002380;28;20033;-92
2021/03/03 10:54:35;;;;;;;22.60;6.28;;;12.80;99.90;;;;;;5019967;28;20108;-92
2021/03/03 10:57:13;;;;;;;25.63;6.32;;;12.80;99.90;;;;;;5012364;28;20524;-91
2021/03/03 10:59:49;;;;;;;26.25;6.70;;;12.70;99.90;;;;;;5025479;28;20044;-92
2021/03/03 11:02:28;;;;;;;22.88;7.10;;;12.70;99.90;;;;;;5015031;28;20044;-92
2021/03/03 11:05:03;;;;;;;24.40;8.13;;;12.60;99.90;;;;;;5021737;28;20134;-92
2021/03/03 11:07:39;;;;;;;35.83;9.52;;;12.50;99.90;;;;;;5024664;28;20053;-92
2021/03/03 11:10:16;;;;;;;35.30;9.00;;;12.60;99.90;;;;;;5010703;28;20110;-92
2021/03/03 11:12:51;;;;;;;30.92;9.10;;;12.60;99.90;;;;;;5021154;28;20045;-92
2021/03/03 11:15:28;;;;;;;38.92;9.02;;;12.60;99.90;;;;;;5014846;28;20045;-92
2021/03/03 11:18:02;;;;;;;37.60;9.38;;;12.60;99.90;;;;;;5022302;28;20041;-91
2021/03/03 11:20:39;;;;;;;41.28;10.02;;;12.70;99.90;;;;;;5017945;28;20640;-92
2021/03/03 11:23:16;;;;;;;47.13;10.88;;;12.70;99.90;;;;;;5011521;28;20048;-91
2021/03/03 11:25:51;;;;;;;36.90;10.85;;;12.80;99.90;;;;;;5020141;28;20100;-92
2021/03/03 11:28:24;;;;;;;41.30;10.73;;;12.80;99.90;;;;;;5032227;28;20049;-92
2021/03/03 11:30:58;;;;;;;40.63;10.90;;;12.90;99.90;;;;;;5018196;28;20094;-92
2021/03/03 11:33:32;;;;;;;34.95;9.13;;;13.00;99.90;;;;;;5014558;28;20052;-94
2021/03/03 11:36:06;;;;;;;34.70;9.80;;;13.10;99.90;;;;;;5022269;28;20553;-92
2021/03/03 11:38:43;;;;;;;;;;;13.10;99.90;;;;;;5018564;28;20051;-92
2021/03/03 11:41:18;;;;;;;32.22;8.85;;;13.20;99.90;;;;;;5010455;28;19931;-95
2021/03/03 11:43:57;;;;;;;42.50;9.57;;;13.30;99.90;;;;;;5016632;28;20153;-92
2021/03/03 11:46:32;;;;;;;38.78;10.55;;;13.40;99.90;;;;;;5030647;28;20378;-92
2021/03/03 11:49:07;;;;;;;39.08;9.05;;;13.30;99.90;;;;;;5016709;28;20049;-93
2021/03/03 11:51:41;;;;;;;33.45;8.75;;;13.40;99.90;;;;;;5034264;28;20045;-94
2021/03/03 11:54:16;;;;;;;37.17;9.77;;;13.40;99.90;;;;;;5014421;28;20103;-92
2021/03/03 11:56:51;;;;;;;35.10;10.80;;;13.40;99.90;;;;;;5008922;28;20069;-91
2021/03/03 11:59:30;;;;;;;34.28;9.50;;;13.40;99.90;;;;;;5005608;28;20645;-92
2021/03/03 12:02:08;;;;;;;41.23;9.30;;;13.50;99.90;;;;;;5025794;28;20073;-92
2021/03/03 12:04:44;;;;;;;39.17;9.35;;;13.50;99.90;;;;;;5007178;28;20056;-92
2021/03/03 12:07:18;;;;;;;30.27;8.73;;;13.40;99.90;;;;;;5013448;28;20095;-94
2021/03/03 12:09:53;;;;;;;36.20;8.38;;;13.40;99.90;;;;;;5020504;28;20056;-92
2021/03/03 12:12:30;;;;;;;37.05;8.13;;;13.40;99.90;;;;;;5016453;28;20466;-92
2021/03/03 12:15:06;;;;;;;42.67;9.85;;;13.40;99.90;;;;;;5024169;28;20084;-91
2021/03/03 12:17:42;;;;;;;37.17;10.30;;;13.30;99.90;;;;;;5002723;28;20052;-91
2021/03/03 12:20:32;;;;;;;39.58;10.38;;;13.40;99.90;;;;;;5024850;28;20119;-91
2021/03/03 12:23:09;;;;;;;36.75;10.40;;;13.40;99.90;;;;;;5034518;28;20126;-91
2021/03/03 12:25:45;;;;;;;30.98;11.13;;;13.40;99.90;;;;;;5046052;28;20095;-92
2021/03/03 12:28:22;;;;;;;41.85;11.93;;;13.40;99.90;;;;;;4998190;28;20049;-91
2021/03/03 12:30:53;;;;;;;34.97;9.65;;;13.40;99.90;;;;;;5029929;28;20091;-91
2021/03/03 12:33:29;;;;;;;26.83;9.68;;;13.40;99.90;;;;;;5018774;28;20109;-92
2021/03/03 12:36:06;;;;;;;30.35;8.63;;;13.50;99.90;;;;;;5019552;28;20056;-92
2021/03/03 12:38:42;;;;;;;34.90;9.45;;;13.50;99.90;;;;;;5028213;28;20456;-92
2021/03/03 12:41:18;;;;;;;30.23;8.65;;;13.50;99.90;;;;;;5017651;28;20053;-91
2021/03/03 12:43:53;;;;;;;35.47;9.40;;;13.50;99.90;;;;;;5038607;28;20459;-92
2021/03/03 12:46:29;;;;;;;29.67;8.30;;;13.60;99.90;;;;;;5015493;28;20129;-92
2021/03/03 12:49:04;;;;;;;28.17;7.95;;;13.70;99.90;;;;;;5020094;28;20052;-92
2021/03/03 12:51:40;;;;;;;25.92;7.53;;;13.70;99.90;;;;;;5018948;28;20064;-92
2021/03/03 12:54:15;;;;;;;35.45;7.97;;;13.80;99.90;;;;;;5014477;28;20050;-92
2021/03/03 12:56:51;;;;;;;37.17;9.15;;;13.70;99.90;;;;;;5023579;28;20053;-91
2021/03/03 12:59:27;;;;;;;40.42;9.40;;;13.80;99.90;;;;;;5012547;28;20051;-92
2021/03/03 13:02:03;;;;;;;42.65;9.32;;;13.70;99.90;;;;;;5027865;28;20798;-92
2021/03/03 13:04:41;;;;;;;30.42;7.63;;;13.80;99.90;;;;;;5026830;28;20498;-92
2021/03/03 13:07:16;;;;;;;32.22;8.02;;;13.80;99.90;;;;;;5015404;28;20191;-90
2021/03/03 13:09:49;;;;;;;33.90;8.90;;;13.90;99.90;;;;;;5024284;28;20052;-92
2021/03/03 13:12:22;;;;;;;40.80;8.35;;;13.90;99.90;;;;;;5011721;28;20045;-92
2021/03/03 13:14:58;;;;;;;30.83;8.30;;;14.00;99.90;;;;;;5019063;28;20045;-92
2021/03/03 13:17:35;;;;;;;35.17;8.40;;;14.10;99.90;;;;;;5005115;28;20506;-92
2021/03/03 13:20:10;;;;;;;39.08;9.18;;;14.00;99.90;;;;;;5014578;28;20044;-91